Time;durP1;ratioP1;P1;durP2;ratioP2;P2;SDS_P1;SDS_P2;PMS_P1;PMS_P2;Temp;Humidity;BMP_temperature;BMP_pressure;BME280_temperature;BME280_humidity;BME280_pressure;Samples;Min_cycle;Max_cycle;Signal;HPM_P1;HPM_P2
2022/03/12 00:01:40;;;;;;;13.47;7.03;;;10.80;41.90;;;;;;5038852;28;20026;-81
2022/03/12 00:04:06;;;;;;;14.97;7.50;;;10.80;41.80;;;;;;5039737;28;20037;-80
2022/03/12 00:06:33;;;;;;;16.03;7.07;;;10.80;41.70;;;;;;5038602;28;20147;-80
2022/03/12 00:08:59;;;;;;;11.53;6.47;;;10.80;41.70;;;;;;5039606;28;20112;-81
2022/03/12 00:11:49;;;;;;;12.67;6.50;;;10.80;41.70;;;;;;5038468;28;20116;-81
2022/03/12 00:14:15;;;;;;;13.43;7.60;;;10.80;41.60;;;;;;5038492;28;20117;-81
2022/03/12 00:16:43;;;;;;;12.23;7.40;;;10.80;41.60;;;;;;5039592;28;20045;-80
2022/03/12 00:19:10;;;;;;;11.07;6.30;;;10.80;41.60;;;;;;5039831;28;20030;-80
2022/03/12 00:21:39;;;;;;;14.77;7.27;;;10.80;41.70;;;;;;5039770;28;20478;-80
2022/03/12 00:24:06;;;;;;;13.17;6.63;;;10.80;41.70;;;;;;5038354;28;20541;-80
2022/03/12 00:26:33;;;;;;;12.27;6.37;;;10.70;41.60;;;;;;5039584;28;20033;-80
2022/03/12 00:28:59;;;;;;;12.90;6.90;;;10.70;41.60;;;;;;5038072;28;20075;-80
2022/03/12 00:31:25;;;;;;;11.40;6.00;;;10.70;41.60;;;;;;5038134;28;20025;-80
2022/03/12 00:33:51;;;;;;;13.43;6.60;;;10.70;41.60;;;;;;5039670;28;20139;-80
2022/03/12 00:36:17;;;;;;;13.23;6.13;;;10.70;42.20;;;;;;5039471;28;20028;-80
2022/03/12 00:38:44;;;;;;;10.70;6.60;;;10.70;41.60;;;;;;5038356;28;20033;-81
2022/03/12 00:41:11;;;;;;;15.40;6.97;;;10.70;41.70;;;;;;5039507;28;20384;-80
2022/03/12 00:43:37;;;;;;;10.60;5.93;;;10.60;41.70;;;;;;5038176;28;20079;-80
2022/03/12 00:46:05;;;;;;;10.83;5.90;;;10.60;41.70;;;;;;5039580;28;20425;-80
2022/03/12 00:48:31;;;;;;;14.10;5.60;;;10.60;41.70;;;;;;5039363;28;20025;-81
2022/03/12 00:50:57;;;;;;;10.33;5.97;;;10.60;41.70;;;;;;5021729;28;20112;-80
2022/03/12 00:53:22;;;;;;;11.70;5.87;;;10.70;41.80;;;;;;5039336;28;20060;-80
2022/03/12 00:55:49;;;;;;;10.10;6.20;;;10.60;41.90;;;;;;5021641;28;20536;-80
2022/03/12 00:58:15;;;;;;;13.83;6.80;;;10.60;41.90;;;;;;5039409;28;20037;-80
2022/03/12 01:00:41;;;;;;;11.07;6.07;;;10.50;42.60;;;;;;5038041;28;20034;-80
2022/03/12 01:03:06;;;;;;;13.43;6.60;;;10.50;42.10;;;;;;5038091;28;20033;-80
2022/03/12 01:05:50;;;;;;;10.37;5.63;;;10.50;42.10;;;;;;5036744;28;20034;-80
2022/03/12 01:08:18;;;;;;;13.43;7.07;;;10.50;42.10;;;;;;5035990;28;20110;-80
2022/03/12 01:10:44;;;;;;;10.57;5.73;;;10.50;42.20;;;;;;5036055;28;20137;-81
2022/03/12 01:13:11;;;;;;;13.30;5.77;;;10.50;42.20;;;;;;5034808;28;20039;-80
2022/03/12 01:15:38;;;;;;;12.23;5.87;;;10.50;42.30;;;;;;5034871;28;20030;-80
2022/03/12 01:18:03;;;;;;;12.37;5.93;;;10.50;42.40;;;;;;5035756;28;20083;-81
2022/03/12 01:20:29;;;;;;;12.20;5.43;;;10.40;42.40;;;;;;5034831;28;20045;-80
2022/03/12 01:22:55;;;;;;;11.23;5.63;;;10.50;42.40;;;;;;5036029;28;20037;-80
2022/03/12 01:25:21;;;;;;;14.53;6.30;;;10.60;42.60;;;;;;5034687;28;20026;-80
2022/03/12 01:27:47;;;;;;;11.97;5.70;;;10.50;42.60;;;;;;5017941;28;20033;-81
2022/03/12 01:30:13;;;;;;;11.77;6.47;;;10.50;42.70;;;;;;5034662;28;20375;-80
2022/03/12 01:32:39;;;;;;;11.77;6.53;;;10.50;43.40;;;;;;5034892;28;20037;-80
2022/03/12 01:35:05;;;;;;;12.70;6.13;;;10.50;42.80;;;;;;5035624;28;20034;-80
2022/03/12 01:37:31;;;;;;;12.73;5.77;;;10.50;42.80;;;;;;5034599;28;20132;-81
2022/03/12 01:39:57;;;;;;;11.93;7.17;;;10.50;42.90;;;;;;5034318;28;20183;-82
2022/03/12 01:42:27;;;;;;;11.97;7.20;;;10.40;42.90;;;;;;5034276;28;20393;-81
2022/03/12 01:44:54;;;;;;;15.93;7.03;;;10.50;42.90;;;;;;5034212;28;20053;-80
2022/03/12 01:47:21;;;;;;;16.70;6.73;;;10.60;43.00;;;;;;5035344;28;20112;-81
2022/03/12 01:49:48;;;;;;;11.33;6.30;;;10.60;43.20;;;;;;5034214;28;20037;-81
2022/03/12 01:52:15;;;;;;;14.13;6.97;;;10.60;43.20;;;;;;5035319;28;20113;-81
2022/03/12 01:54:41;;;;;;;13.33;7.27;;;10.70;43.30;;;;;;5017475;28;20207;-80
2022/03/12 01:57:09;;;;;;;13.63;6.90;;;10.60;43.40;;;;;;5034016;28;20053;-81
2022/03/12 01:59:35;;;;;;;12.47;7.00;;;10.60;43.50;;;;;;5035200;28;20026;-81
2022/03/12 02:02:03;;;;;;;15.37;6.67;;;10.60;43.80;;;;;;5035683;28;20029;-80
2022/03/12 02:04:29;;;;;;;15.13;6.90;;;10.70;43.90;;;;;;5033539;28;20430;-80
2022/03/12 02:06:58;;;;;;;15.40;7.20;;;10.70;44.10;;;;;;5033720;28;20124;-80
2022/03/12 02:09:25;;;;;;;15.50;7.60;;;10.70;44.30;;;;;;5033610;28;20068;-80
2022/03/12 02:11:51;;;;;;;14.17;7.27;;;10.70;44.70;;;;;;5033682;28;20529;-80
2022/03/12 02:14:23;;;;;;;14.93;7.13;;;10.70;45.00;;;;;;5034978;28;20083;-80
2022/03/12 02:16:53;;;;;;;13.03;7.23;;;10.70;45.60;;;;;;5032952;28;20496;-81
2022/03/12 02:19:20;;;;;;;13.70;6.93;;;10.70;46.00;;;;;;5033440;28;20033;-80
2022/03/12 02:22:08;;;;;;;14.80;7.67;;;10.70;45.90;;;;;;5035311;28;20026;-80
2022/03/12 02:24:36;;;;;;;13.83;6.97;;;10.70;46.40;;;;;;5035031;28;20029;-80
2022/03/12 02:27:04;;;;;;;11.10;6.73;;;10.70;46.80;;;;;;5034689;28;20043;-80
2022/03/12 02:29:30;;;;;;;16.20;8.27;;;10.60;46.80;;;;;;5033604;28;20104;-80
2022/03/12 02:32:10;;;;;;;16.23;7.47;;;10.60;47.30;;;;;;5034600;28;20434;-80
2022/03/12 02:34:42;;;;;;;13.77;7.17;;;10.60;47.20;;;;;;5033162;28;20105;-80
2022/03/12 02:37:08;;;;;;;13.20;7.83;;;10.60;47.60;;;;;;5034467;28;20017;-79
2022/03/12 02:39:37;;;;;;;15.47;7.80;;;10.60;47.70;;;;;;5033406;28;20109;-79
2022/03/12 02:42:07;;;;;;;14.43;8.60;;;10.60;47.90;;;;;;5034471;28;20021;-81
2022/03/12 02:44:34;;;;;;;13.50;7.67;;;10.50;48.50;;;;;;5032945;28;20028;-80
2022/03/12 02:47:14;;;;;;;14.47;7.43;;;10.50;48.40;;;;;;5033010;28;20171;-80
2022/03/12 02:49:58;;;;;;;12.70;7.07;;;10.50;48.70;;;;;;5034218;28;20040;-80
2022/03/12 02:52:27;;;;;;;;;;;10.50;48.80;;;;;;5034593;28;20040;-80
2022/03/12 02:54:55;;;;;;;12.53;7.43;;;10.50;49.20;;;;;;5032720;28;20015;-80
2022/03/12 02:57:25;;;;;;;14.80;7.13;;;10.50;49.10;;;;;;5032837;28;20025;-79
2022/03/12 02:59:52;;;;;;;15.43;8.37;;;10.50;49.40;;;;;;5016915;28;20460;-80
2022/03/12 03:02:31;;;;;;;13.60;7.10;;;10.60;49.40;;;;;;5034446;28;20109;-80
2022/03/12 03:04:57;;;;;;;12.87;7.87;;;10.50;49.40;;;;;;5034217;28;20025;-80
2022/03/12 03:07:24;;;;;;;12.83;7.10;;;10.50;49.30;;;;;;5032545;28;20026;-80
2022/03/12 03:09:50;;;;;;;14.83;7.73;;;10.50;49.30;;;;;;5032696;28;20029;-80
2022/03/12 03:12:18;;;;;;;14.60;8.13;;;10.50;49.30;;;;;;5032517;28;20037;-80
2022/03/12 03:14:46;;;;;;;12.20;7.37;;;10.60;49.10;;;;;;5033969;28;20032;-80
2022/03/12 03:17:12;;;;;;;14.97;7.90;;;10.50;48.90;;;;;;5033720;28;20023;-80
2022/03/12 03:19:38;;;;;;;14.80;8.80;;;10.50;49.10;;;;;;5033762;28;20105;-80
2022/03/12 03:22:05;;;;;;;14.70;8.27;;;10.50;49.00;;;;;;5032644;28;20079;-80
2022/03/12 03:24:31;;;;;;;14.20;7.77;;;10.50;48.90;;;;;;5033676;28;20021;-80
2022/03/12 03:26:59;;;;;;;16.13;7.87;;;10.50;48.90;;;;;;5032397;28;20018;-80
2022/03/12 03:29:27;;;;;;;15.47;7.57;;;10.50;48.90;;;;;;5032911;28;20076;-80
2022/03/12 03:31:53;;;;;;;19.00;7.90;;;10.60;49.00;;;;;;5033598;28;20072;-80
2022/03/12 03:34:20;;;;;;;16.10;8.10;;;10.50;48.80;;;;;;5032254;28;20084;-80
2022/03/12 03:36:46;;;;;;;12.80;6.83;;;10.50;48.80;;;;;;5015838;28;20017;-80
2022/03/12 03:39:12;;;;;;;14.93;7.53;;;10.50;48.70;;;;;;5033435;28;20386;-80
2022/03/12 03:41:38;;;;;;;16.37;8.07;;;10.50;49.00;;;;;;5033329;28;20040;-80
2022/03/12 03:44:05;;;;;;;16.57;8.60;;;10.50;49.00;;;;;;5032154;28;20036;-80
2022/03/12 03:46:32;;;;;;;15.37;8.20;;;10.50;49.00;;;;;;5015852;28;20086;-80
2022/03/12 03:48:57;;;;;;;16.13;9.33;;;10.50;48.90;;;;;;5033359;28;20104;-80
2022/03/12 03:51:23;;;;;;;16.67;8.57;;;10.50;49.10;;;;;;5033477;28;20447;-81
2022/03/12 03:53:50;;;;;;;15.30;8.10;;;10.50;48.90;;;;;;5032271;28;20486;-81
2022/03/12 03:56:17;;;;;;;17.53;8.80;;;10.50;49.00;;;;;;5033239;28;20045;-80
2022/03/12 03:58:42;;;;;;;14.30;8.20;;;10.50;49.00;;;;;;5033263;28;20150;-80
2022/03/12 04:01:12;;;;;;;15.97;8.57;;;10.50;49.20;;;;;;5032041;28;20030;-80
2022/03/12 04:03:42;;;;;;;13.47;8.20;;;10.50;49.90;;;;;;5031838;28;20026;-80
2022/03/12 04:06:08;;;;;;;17.37;8.27;;;10.50;49.40;;;;;;5033058;28;20108;-80
2022/03/12 04:08:34;;;;;;;14.60;7.93;;;10.50;50.00;;;;;;5031449;28;20036;-80
2022/03/12 04:11:06;;;;;;;14.60;8.93;;;10.50;49.50;;;;;;5052331;28;20426;-81
2022/03/12 04:13:33;;;;;;;15.13;8.27;;;10.50;49.50;;;;;;5053036;28;20021;-81
2022/03/12 04:16:00;;;;;;;14.50;8.30;;;10.50;49.50;;;;;;5052855;28;20473;-79
2022/03/12 04:18:26;;;;;;;17.20;8.63;;;10.50;49.60;;;;;;5051784;28;20485;-80
2022/03/12 04:20:52;;;;;;;12.77;7.70;;;10.50;49.80;;;;;;5052847;28;20029;-80
2022/03/12 04:23:21;;;;;;;16.67;8.27;;;10.50;50.20;;;;;;5052929;28;20112;-80
2022/03/12 04:25:48;;;;;;;18.77;8.90;;;10.50;50.50;;;;;;5051608;28;20032;-80
2022/03/12 04:28:13;;;;;;;14.30;8.17;;;10.50;51.20;;;;;;5051581;28;20052;-80
2022/03/12 04:30:39;;;;;;;13.37;7.90;;;10.50;50.80;;;;;;5051434;28;20024;-80
2022/03/12 04:33:07;;;;;;;18.07;9.17;;;10.40;51.10;;;;;;5051674;28;20033;-80
2022/03/12 04:35:34;;;;;;;18.27;8.10;;;10.40;51.50;;;;;;5046126;28;20029;-80
2022/03/12 04:38:00;;;;;;;17.30;8.53;;;10.60;52.10;;;;;;5032796;28;20079;-81
2022/03/12 04:40:27;;;;;;;15.80;9.00;;;10.40;52.00;;;;;;5034513;28;20029;-80
2022/03/12 04:42:53;;;;;;;15.53;8.10;;;10.40;52.00;;;;;;5035411;28;20387;-81
2022/03/12 04:45:22;;;;;;;14.80;8.90;;;10.40;52.30;;;;;;5036567;28;20025;-80
2022/03/12 04:47:49;;;;;;;18.20;7.97;;;10.40;52.70;;;;;;5036369;28;20026;-80
2022/03/12 04:50:17;;;;;;;16.33;8.23;;;10.40;52.60;;;;;;5018956;28;20033;-80
2022/03/12 04:52:47;;;;;;;14.77;8.60;;;10.30;53.20;;;;;;5036491;28;20124;-80
2022/03/12 04:55:16;;;;;;;15.97;8.47;;;10.30;53.00;;;;;;5036232;28;20521;-80
2022/03/12 04:57:42;;;;;;;15.47;8.87;;;10.30;53.00;;;;;;5035098;28;20022;-80
2022/03/12 05:00:19;;;;;;;14.57;8.23;;;10.30;53.50;;;;;;5036321;28;20033;-80
2022/03/12 05:02:46;;;;;;;16.63;8.60;;;10.20;53.50;;;;;;5036273;28;20026;-80
2022/03/12 05:05:13;;;;;;;16.60;8.27;;;10.20;53.70;;;;;;5034909;28;20108;-80
2022/03/12 05:07:44;;;;;;;16.10;8.30;;;10.10;53.70;;;;;;5018472;28;20026;-80
2022/03/12 05:10:16;;;;;;;13.57;7.83;;;10.00;53.90;;;;;;5034540;28;20099;-80
2022/03/12 05:12:43;;;;;;;15.83;8.10;;;10.00;53.80;;;;;;5034781;28;20470;-80
2022/03/12 05:15:11;;;;;;;18.33;8.30;;;10.00;53.90;;;;;;5036059;28;20072;-80
2022/03/12 05:17:48;;;;;;;15.27;8.57;;;9.90;53.80;;;;;;5034613;28;20028;-80
2022/03/12 05:20:23;;;;;;;14.53;7.97;;;9.90;54.00;;;;;;5034537;28;20504;-79
2022/03/12 05:22:50;;;;;;;16.77;8.73;;;9.80;54.00;;;;;;5035934;28;20421;-80
2022/03/12 05:25:18;;;;;;;16.30;8.50;;;9.70;54.10;;;;;;5034622;28;20029;-80
2022/03/12 05:27:53;;;;;;;13.73;7.33;;;9.80;54.20;;;;;;5018379;28;20033;-79
2022/03/12 05:30:21;;;;;;;14.90;8.60;;;9.70;54.30;;;;;;5035681;28;20549;-80
2022/03/12 05:32:48;;;;;;;14.93;8.37;;;9.70;54.30;;;;;;5035634;28;20544;-80
2022/03/12 05:35:17;;;;;;;16.67;8.60;;;9.60;54.50;;;;;;5018079;28;20021;-80
2022/03/12 05:37:45;;;;;;;15.53;8.67;;;9.60;54.60;;;;;;5034412;28;20021;-80
2022/03/12 05:40:11;;;;;;;17.77;7.93;;;9.60;54.60;;;;;;5039003;28;20024;-79
2022/03/12 05:42:37;;;;;;;15.83;8.57;;;9.50;54.60;;;;;;5054791;28;20362;-79
2022/03/12 05:45:09;;;;;;;15.30;7.30;;;9.50;54.60;;;;;;5053912;28;20033;-80
2022/03/12 05:47:39;;;;;;;14.97;7.70;;;9.40;54.50;;;;;;5055340;28;20056;-80
2022/03/12 05:50:09;;;;;;;14.33;7.67;;;9.40;54.80;;;;;;5051465;28;20107;-80
2022/03/12 05:52:39;;;;;;;14.17;7.73;;;9.30;54.80;;;;;;5053230;28;20045;-80
2022/03/12 05:55:08;;;;;;;15.23;8.13;;;9.30;54.90;;;;;;5053673;28;20049;-80
2022/03/12 05:57:37;;;;;;;15.10;7.57;;;9.30;55.30;;;;;;5053946;28;20110;-80
2022/03/12 06:00:06;;;;;;;14.40;8.07;;;9.30;55.00;;;;;;5053909;28;20029;-79
2022/03/12 06:02:32;;;;;;;16.17;8.00;;;9.20;55.20;;;;;;5053785;28;20033;-80
2022/03/12 06:05:00;;;;;;;19.87;8.47;;;9.20;55.50;;;;;;5053773;28;20505;-80
2022/03/12 06:07:27;;;;;;;14.30;8.60;;;9.20;55.60;;;;;;5055121;28;20060;-79
2022/03/12 06:09:54;;;;;;;14.77;8.07;;;9.10;55.60;;;;;;5053617;28;20017;-80
2022/03/12 06:12:20;;;;;;;15.97;9.00;;;9.00;55.50;;;;;;5037052;28;20469;-80
2022/03/12 06:14:52;;;;;;;14.07;8.13;;;9.10;56.20;;;;;;5054945;28;20025;-79
2022/03/12 06:17:19;;;;;;;14.87;8.07;;;9.10;56.50;;;;;;5054839;28;20025;-80
2022/03/12 06:19:45;;;;;;;13.37;6.67;;;9.00;56.00;;;;;;5054923;28;20033;-80
2022/03/12 06:22:11;;;;;;;13.97;7.90;;;8.90;55.90;;;;;;5053657;28;20029;-80
2022/03/12 06:24:37;;;;;;;16.57;8.20;;;9.00;56.10;;;;;;5054649;28;20075;-80
2022/03/12 06:27:03;;;;;;;14.03;7.67;;;9.00;56.00;;;;;;5053494;28;20026;-80
2022/03/12 06:29:29;;;;;;;13.70;8.07;;;9.00;56.20;;;;;;5053258;28;20029;-80
2022/03/12 06:31:55;;;;;;;12.47;6.70;;;9.00;56.40;;;;;;5053341;28;20504;-79
2022/03/12 06:34:20;;;;;;;15.77;8.50;;;9.10;56.70;;;;;;5054609;28;20078;-79
2022/03/12 06:36:46;;;;;;;15.93;8.70;;;9.00;56.60;;;;;;5053168;28;20021;-79
2022/03/12 06:39:12;;;;;;;15.70;8.20;;;9.00;56.90;;;;;;5054742;28;20118;-80
2022/03/12 06:41:44;;;;;;;17.13;8.33;;;9.00;56.90;;;;;;5053242;28;20069;-80
2022/03/12 06:44:12;;;;;;;14.33;8.23;;;9.00;57.50;;;;;;5053123;28;20370;-80
2022/03/12 06:46:38;;;;;;;13.97;7.83;;;9.00;57.40;;;;;;5052995;28;20506;-80
2022/03/12 06:49:04;;;;;;;14.40;8.17;;;9.00;57.40;;;;;;5052937;28;20028;-80
2022/03/12 06:51:31;;;;;;;15.63;8.43;;;9.00;57.40;;;;;;5052901;28;20048;-80
2022/03/12 06:53:57;;;;;;;15.47;8.70;;;9.10;57.80;;;;;;5053869;28;20029;-80
2022/03/12 06:56:22;;;;;;;12.50;7.40;;;9.10;58.00;;;;;;5053655;28;20045;-80
2022/03/12 06:58:48;;;;;;;15.80;7.77;;;9.10;57.90;;;;;;5036230;28;20037;-80
2022/03/12 07:01:14;;;;;;;14.77;7.77;;;9.10;58.00;;;;;;5036035;28;20124;-81
2022/03/12 07:03:39;;;;;;;14.60;8.00;;;9.10;58.00;;;;;;5035099;28;20079;-81
2022/03/12 07:06:06;;;;;;;15.07;7.40;;;9.10;58.10;;;;;;5035983;28;20033;-81
2022/03/12 07:08:33;;;;;;;13.70;7.33;;;9.20;58.20;;;;;;5052288;28;20508;-81
2022/03/12 07:10:59;;;;;;;15.17;7.23;;;9.20;58.20;;;;;;5052492;28;20511;-81
2022/03/12 07:13:25;;;;;;;13.87;7.77;;;9.20;58.10;;;;;;5036024;28;20029;-79
2022/03/12 07:15:51;;;;;;;14.97;8.27;;;9.30;58.30;;;;;;5035722;28;20093;-78
2022/03/12 07:18:16;;;;;;;13.97;7.50;;;9.30;58.40;;;;;;5053487;28;20033;-79
2022/03/12 07:20:42;;;;;;;13.23;7.53;;;9.30;58.50;;;;;;5052548;28;20060;-78
2022/03/12 07:23:08;;;;;;;16.80;7.33;;;9.40;58.70;;;;;;5053570;28;20482;-78
2022/03/12 07:25:34;;;;;;;13.53;7.37;;;9.30;59.00;;;;;;5038981;28;20116;-78
2022/03/12 07:28:00;;;;;;;14.53;7.43;;;9.50;59.20;;;;;;5032309;28;20501;-78
2022/03/12 07:30:26;;;;;;;15.30;7.87;;;9.50;59.40;;;;;;5051538;28;20072;-78
2022/03/12 07:32:51;;;;;;;15.43;7.43;;;9.50;59.10;;;;;;5052113;28;20020;-80
2022/03/12 07:35:18;;;;;;;14.57;7.87;;;9.70;59.20;;;;;;5053446;28;20025;-78
2022/03/12 07:37:46;;;;;;;12.43;6.53;;;9.60;58.90;;;;;;5053318;28;20037;-78
2022/03/12 07:40:13;;;;;;;12.83;7.07;;;9.70;59.20;;;;;;5053558;28;20021;-79
2022/03/12 07:42:39;;;;;;;12.60;6.97;;;9.80;59.20;;;;;;5053383;28;20095;-80
2022/03/12 07:45:07;;;;;;;12.27;7.30;;;9.80;59.20;;;;;;5052326;28;20028;-80
2022/03/12 07:47:34;;;;;;;14.00;7.73;;;9.90;59.30;;;;;;5038674;28;20038;-78
2022/03/12 07:50:00;;;;;;;12.27;7.07;;;9.90;59.60;;;;;;5046894;28;20029;-79
2022/03/12 07:52:25;;;;;;;13.83;7.47;;;9.90;59.60;;;;;;5051870;28;20036;-79
2022/03/12 07:54:51;;;;;;;12.97;6.93;;;10.00;59.90;;;;;;5052021;28;20048;-79
2022/03/12 07:57:17;;;;;;;12.87;6.97;;;10.10;60.30;;;;;;5052326;28;20052;-79
2022/03/12 07:59:44;;;;;;;15.60;7.23;;;10.10;60.70;;;;;;5051864;28;20479;-79
2022/03/12 08:02:11;;;;;;;13.47;7.00;;;10.20;60.80;;;;;;5053213;28;20041;-79
2022/03/12 08:04:36;;;;;;;14.33;7.43;;;10.30;60.90;;;;;;5051650;28;20055;-79
2022/03/12 08:07:03;;;;;;;12.43;6.90;;;10.30;61.00;;;;;;5051794;28;20056;-79
2022/03/12 08:09:30;;;;;;;15.07;6.93;;;10.30;61.00;;;;;;5052913;28;20507;-79
2022/03/12 08:11:57;;;;;;;10.80;6.03;;;10.40;61.50;;;;;;5051421;28;20390;-79
2022/03/12 08:14:23;;;;;;;13.87;6.90;;;10.40;62.10;;;;;;5035131;28;20354;-79
2022/03/12 08:16:51;;;;;;;15.43;6.90;;;10.50;63.10;;;;;;5056990;28;20068;-80
2022/03/12 08:19:17;;;;;;;12.47;6.57;;;10.50;62.60;;;;;;5055679;28;20079;-79
2022/03/12 08:21:44;;;;;;;13.27;6.30;;;10.60;62.40;;;;;;5056834;28;20025;-80
2022/03/12 08:24:12;;;;;;;12.30;7.10;;;10.60;62.80;;;;;;5055326;28;20516;-80
2022/03/12 08:26:41;;;;;;;12.87;6.63;;;10.70;63.90;;;;;;5035568;28;20029;-79
2022/03/12 08:29:10;;;;;;;10.00;5.43;;;10.80;64.70;;;;;;5003720;28;20084;-80
2022/03/12 08:31:36;;;;;;;9.27;5.80;;;10.80;65.40;;;;;;5035748;28;20033;-83
2022/03/12 08:34:02;;;;;;;12.37;6.47;;;10.90;66.20;;;;;;5019346;28;20022;-83
2022/03/12 08:36:28;;;;;;;10.07;6.07;;;11.00;67.50;;;;;;5018903;28;20462;-84
2022/03/12 08:38:54;;;;;;;10.80;6.20;;;11.00;66.80;;;;;;5018836;28;20031;-82
2022/03/12 08:41:22;;;;;;;14.17;6.87;;;11.10;67.20;;;;;;5019000;28;20040;-81
2022/03/12 08:43:48;;;;;;;14.57;8.00;;;11.10;67.00;;;;;;5035558;28;20079;-85
2022/03/12 08:46:14;;;;;;;12.10;6.70;;;11.10;68.10;;;;;;5035490;28;20049;-83
2022/03/12 08:48:40;;;;;;;13.57;6.83;;;11.20;68.00;;;;;;5036553;28;20057;-83
2022/03/12 08:51:06;;;;;;;11.70;7.00;;;11.20;68.00;;;;;;5035140;28;20481;-83
2022/03/12 08:53:33;;;;;;;13.10;7.00;;;11.20;68.10;;;;;;5036384;28;20378;-82
2022/03/12 08:56:02;;;;;;;12.43;7.63;;;11.20;67.90;;;;;;5036344;28;20045;-85
2022/03/12 08:58:29;;;;;;;11.27;7.00;;;11.20;68.10;;;;;;5035182;28;20041;-83
2022/03/12 09:00:56;;;;;;;11.07;6.60;;;11.30;68.20;;;;;;5035087;28;20030;-83
2022/03/12 09:03:23;;;;;;;11.50;6.57;;;11.40;68.80;;;;;;5035059;28;20436;-83
2022/03/12 09:05:50;;;;;;;11.13;6.50;;;11.50;68.90;;;;;;5036171;28;20025;-83
2022/03/12 09:08:17;;;;;;;14.93;7.50;;;11.50;69.00;;;;;;5035096;28;20034;-82
2022/03/12 09:10:43;;;;;;;12.02;6.80;;;11.50;69.00;;;;;;5018648;28;20025;-82
2022/03/12 09:13:12;;;;;;;10.77;6.80;;;11.60;69.60;;;;;;5035377;28;20128;-82
2022/03/12 09:15:39;;;;;;;9.87;5.80;;;11.70;69.70;;;;;;5035468;28;20108;-82
2022/03/12 09:18:05;;;;;;;11.40;6.40;;;11.70;69.80;;;;;;5034667;28;20038;-82
2022/03/12 09:20:32;;;;;;;11.13;6.13;;;11.80;69.60;;;;;;5034936;28;20095;-81
2022/03/12 09:22:58;;;;;;;11.52;6.43;;;11.90;69.30;;;;;;5018416;28;20031;-81
2022/03/12 09:25:24;;;;;;;11.25;6.18;;;11.90;69.60;;;;;;5035938;28;20057;-81
2022/03/12 09:27:49;;;;;;;9.70;6.05;;;12.00;69.50;;;;;;5016938;28;20026;-81
2022/03/12 09:30:15;;;;;;;10.82;5.25;;;12.20;70.00;;;;;;5017984;28;20481;-80
2022/03/12 09:32:41;;;;;;;9.55;5.55;;;12.20;69.20;;;;;;5017987;28;20025;-83
2022/03/12 09:35:08;;;;;;;10.20;5.78;;;12.30;69.20;;;;;;5036281;28;20100;-80
2022/03/12 09:37:38;;;;;;;10.23;5.88;;;12.40;69.00;;;;;;5035588;28;20102;-82
2022/03/12 09:40:04;;;;;;;11.13;6.05;;;12.50;69.00;;;;;;5040623;28;20118;-82
2022/03/12 09:42:30;;;;;;;9.82;5.05;;;12.60;68.90;;;;;;5027861;28;20033;-82
2022/03/12 09:45:00;;;;;;;10.75;5.80;;;12.70;68.80;;;;;;5037608;28;20021;-82
2022/03/12 09:47:26;;;;;;;9.98;5.22;;;12.80;68.80;;;;;;5053691;28;20115;-80
2022/03/12 09:49:52;;;;;;;13.52;5.72;;;12.80;69.30;;;;;;5037912;28;20104;-80
2022/03/12 09:52:18;;;;;;;10.18;5.40;;;12.90;68.60;;;;;;5037520;28;20036;-82
2022/03/12 09:54:44;;;;;;;9.05;5.32;;;13.00;68.40;;;;;;5055244;28;20052;-81
2022/03/12 09:57:10;;;;;;;9.80;5.15;;;13.20;68.20;;;;;;5054165;28;20053;-80
2022/03/12 09:59:35;;;;;;;9.30;5.05;;;13.20;68.00;;;;;;5054073;28;20083;-79
2022/03/12 10:02:01;;;;;;;8.80;4.28;;;13.30;67.90;;;;;;5037031;28;20501;-79
2022/03/12 10:04:28;;;;;;;9.55;4.60;;;13.40;67.80;;;;;;5037126;28;20068;-79
2022/03/12 10:06:54;;;;;;;11.07;4.72;;;13.50;67.50;;;;;;5053642;28;20029;-81
2022/03/12 10:09:20;;;;;;;11.95;3.80;;;13.60;67.10;;;;;;5053558;28;20032;-80
2022/03/12 10:11:49;;;;;;;10.63;4.53;;;13.70;66.80;;;;;;5055082;28;20033;-79
2022/03/12 10:14:15;;;;;;;7.72;4.25;;;13.80;66.50;;;;;;5053416;28;20033;-79
2022/03/12 10:16:40;;;;;;;8.70;3.63;;;13.90;66.40;;;;;;5036979;28;20051;-79
2022/03/12 10:19:06;;;;;;;8.32;4.13;;;14.00;66.10;;;;;;5054687;28;20029;-80
2022/03/12 10:21:32;;;;;;;9.07;3.92;;;14.10;65.70;;;;;;5041312;28;20041;-80
2022/03/12 10:23:59;;;;;;;7.47;3.75;;;14.30;65.50;;;;;;5048567;28;20063;-79
2022/03/12 10:26:25;;;;;;;6.25;2.88;;;14.50;65.10;;;;;;5036746;28;20481;-80
2022/03/12 10:28:51;;;;;;;7.72;3.22;;;14.60;64.70;;;;;;5054405;28;20083;-80
2022/03/12 10:31:19;;;;;;;7.40;2.85;;;14.80;64.30;;;;;;5054403;28;20029;-79
2022/03/12 10:33:46;;;;;;;5.85;2.40;;;15.00;63.50;;;;;;5037083;28;20032;-82
2022/03/12 10:36:14;;;;;;;7.07;2.80;;;15.10;61.90;;;;;;5054527;28;20019;-80
2022/03/12 10:38:42;;;;;;;8.13;2.65;;;15.20;61.70;;;;;;5054181;28;20029;-81
2022/03/12 10:41:09;;;;;;;7.38;2.80;;;15.20;60.70;;;;;;5036919;28;20033;-79
2022/03/12 10:43:44;;;;;;;6.32;2.22;;;15.30;59.90;;;;;;5053761;28;20028;-83
2022/03/12 10:46:19;;;;;;;5.97;2.30;;;15.30;59.30;;;;;;5034291;28;20100;-80
2022/03/12 10:48:48;;;;;;;6.47;2.75;;;15.30;59.30;;;;;;5043542;28;20031;-80
2022/03/12 10:51:16;;;;;;;8.85;3.10;;;15.30;59.00;;;;;;5020495;28;20032;-80
2022/03/12 10:53:42;;;;;;;5.30;2.38;;;15.10;59.20;;;;;;5031783;28;20030;-80
2022/03/12 10:56:08;;;;;;;7.82;3.15;;;15.00;59.50;;;;;;5032295;28;20053;-78
2022/03/12 10:58:34;;;;;;;6.78;2.92;;;15.00;59.80;;;;;;5032708;28;20030;-79
2022/03/12 11:01:01;;;;;;;7.07;3.15;;;15.00;60.00;;;;;;5032737;28;20057;-79
2022/03/12 11:03:33;;;;;;;6.25;2.63;;;14.90;60.00;;;;;;5032703;28;20504;-80
2022/03/12 11:05:59;;;;;;;8.93;3.28;;;15.00;60.10;;;;;;5032532;28;20028;-80
2022/03/12 11:08:29;;;;;;;6.38;2.90;;;15.00;59.90;;;;;;5015858;28;20029;-78
2022/03/12 11:11:11;;;;;;;7.18;3.10;;;15.10;59.90;;;;;;5032538;28;20053;-79
2022/03/12 11:13:44;;;;;;;8.48;3.33;;;15.20;59.90;;;;;;5033881;28;20017;-79
2022/03/12 11:16:19;;;;;;;6.65;2.60;;;15.20;59.60;;;;;;5033428;28;20144;-79
2022/03/12 11:18:50;;;;;;;6.18;2.33;;;15.30;59.70;;;;;;5047680;28;20044;-79
2022/03/12 11:21:29;;;;;;;5.82;2.00;;;15.40;59.40;;;;;;5039847;28;20446;-80
2022/03/12 11:23:57;;;;;;;6.10;2.50;;;15.50;59.30;;;;;;5048977;28;20033;-79
2022/03/12 11:26:24;;;;;;;6.15;2.92;;;15.60;59.00;;;;;;5042208;28;20034;-79
2022/03/12 11:28:57;;;;;;;8.57;3.15;;;15.60;58.70;;;;;;5046763;28;20033;-81
2022/03/12 11:31:39;;;;;;;6.43;2.72;;;15.60;58.50;;;;;;5053472;28;20079;-82
2022/03/12 11:34:23;;;;;;;5.90;2.72;;;15.60;58.50;;;;;;5052047;28;20489;-79
2022/03/12 11:37:15;;;;;;;6.90;2.67;;;15.80;58.60;;;;;;5052899;28;20441;-79
2022/03/12 11:39:50;;;;;;;4.90;2.22;;;16.10;58.70;;;;;;5038860;28;20044;-81
2022/03/12 11:42:27;;;;;;;5.90;2.15;;;16.50;58.40;;;;;;5044513;28;20028;-83
2022/03/12 11:44:58;;;;;;;5.22;2.55;;;16.80;57.70;;;;;;5036963;28;20024;-81
2022/03/12 11:47:26;;;;;;;5.95;2.13;;;17.00;56.70;;;;;;5035429;28;20056;-81
2022/03/12 11:49:52;;;;;;;5.00;2.28;;;17.30;56.60;;;;;;5052628;28;20481;-80
2022/03/12 11:52:19;;;;;;;5.90;2.28;;;17.70;56.50;;;;;;5052015;28;20358;-80
2022/03/12 11:54:46;;;;;;;6.00;2.38;;;18.10;55.80;;;;;;5051797;28;20049;-80
2022/03/12 11:57:29;;;;;;;7.47;2.67;;;18.60;54.80;;;;;;5011968;28;20116;-82
2022/03/12 11:59:56;;;;;;;8.13;2.72;;;18.70;53.40;;;;;;5031894;28;20029;-79
2022/03/12 12:02:25;;;;;;;8.77;2.42;;;18.70;52.80;;;;;;5015611;28;20017;-79
2022/03/12 12:04:52;;;;;;;6.88;2.33;;;18.50;52.40;;;;;;5031854;28;20026;-79
2022/03/12 12:07:20;;;;;;;9.07;2.63;;;18.40;52.50;;;;;;5035165;28;20033;-79
2022/03/12 12:09:46;;;;;;;5.57;1.73;;;18.30;52.70;;;;;;5040215;28;20029;-80
2022/03/12 12:12:13;;;;;;;4.75;2.00;;;18.40;53.00;;;;;;5048294;28;20478;-79
2022/03/12 12:14:43;;;;;;;6.60;2.88;;;18.50;52.30;;;;;;5048344;28;20013;-80
2022/03/12 12:17:12;;;;;;;6.53;2.38;;;18.40;51.80;;;;;;5046439;28;20032;-80
2022/03/12 12:19:38;;;;;;;6.72;2.67;;;18.30;52.00;;;;;;5050410;28;20033;-82
2022/03/12 12:22:07;;;;;;;7.72;3.72;;;18.30;52.40;;;;;;5014566;28;20038;-80
2022/03/12 12:24:36;;;;;;;8.68;3.17;;;18.20;52.20;;;;;;5041148;28;20064;-80
2022/03/12 12:27:08;;;;;;;8.80;3.20;;;18.30;52.50;;;;;;5042502;28;20120;-81
2022/03/12 12:29:44;;;;;;;5.75;2.80;;;18.30;52.30;;;;;;5051704;28;20492;-80
2022/03/12 12:32:15;;;;;;;8.20;2.70;;;18.30;52.30;;;;;;5051269;28;20053;-78
2022/03/12 12:34:58;;;;;;;7.47;2.70;;;18.40;52.30;;;;;;5052687;28;20075;-80
2022/03/12 12:37:51;;;;;;;6.68;2.97;;;18.50;52.00;;;;;;5051352;28;20021;-78
2022/03/12 12:40:23;;;;;;;7.53;2.67;;;18.60;51.70;;;;;;5052191;28;20508;-78
2022/03/12 12:42:51;;;;;;;7.53;2.33;;;18.60;51.40;;;;;;5052537;28;20090;-78
2022/03/12 12:45:19;;;;;;;6.32;2.63;;;18.60;51.90;;;;;;5051008;28;20485;-78